createdAt,value
2018-06-15T00:00:17.645Z,20.40
2018-06-15T00:02:51.329Z,20.40
2018-06-15T00:05:19.861Z,20.30
2018-06-15T00:07:48.248Z,20.20
2018-06-15T00:10:16.613Z,20.20
2018-06-15T00:12:45.090Z,20.20
2018-06-15T00:15:13.761Z,20.20
2018-06-15T00:17:42.245Z,20.20
2018-06-15T00:20:10.708Z,20.20
2018-06-15T00:22:39.206Z,20.20
2018-06-15T00:25:07.626Z,20.10
2018-06-15T00:27:36.118Z,20.10
2018-06-15T00:30:04.902Z,20.00
2018-06-15T00:32:33.271Z,20.00
2018-06-15T00:35:01.694Z,20.00
2018-06-15T00:37:31.029Z,20.00
2018-06-15T00:39:59.542Z,20.10
2018-06-15T00:42:27.923Z,20.00
2018-06-15T00:44:56.481Z,19.90
2018-06-15T00:47:24.861Z,19.90
2018-06-15T00:49:53.261Z,19.90
2018-06-15T00:52:21.783Z,19.90
2018-06-15T00:54:50.178Z,19.90
2018-06-15T00:57:29.889Z,19.80
2018-06-15T00:59:58.305Z,19.90
2018-06-15T01:02:26.686Z,19.80
2018-06-15T01:04:55.031Z,19.80
2018-06-15T01:07:23.405Z,19.80
2018-06-15T01:09:51.765Z,19.80
2018-06-15T01:12:20.217Z,19.80
2018-06-15T01:14:48.638Z,19.70
2018-06-15T01:17:17.066Z,19.80
2018-06-15T01:19:45.835Z,19.80
2018-06-15T01:22:14.331Z,19.80
2018-06-15T01:24:42.690Z,19.80
2018-06-15T01:27:11.053Z,19.80
2018-06-15T01:29:39.571Z,19.90
2018-06-15T01:32:07.967Z,19.80
2018-06-15T01:34:36.352Z,19.90
2018-06-15T01:37:04.760Z,19.80
2018-06-15T01:39:33.113Z,19.80
2018-06-15T01:42:01.493Z,19.80
2018-06-15T01:44:29.824Z,19.80
2018-06-15T01:46:58.363Z,19.80
2018-06-15T01:49:26.746Z,19.80
2018-06-15T01:51:55.126Z,19.80
2018-06-15T01:54:23.613Z,19.70
2018-06-15T01:56:52.085Z,19.70
2018-06-15T01:59:20.456Z,19.70
2018-06-15T02:01:48.838Z,19.70
2018-06-15T02:04:17.217Z,19.70
2018-06-15T02:06:45.689Z,19.70
2018-06-15T02:09:14.071Z,19.70
2018-06-15T02:11:42.563Z,19.70
2018-06-15T02:14:10.956Z,19.60
2018-06-15T02:16:39.328Z,19.60
2018-06-15T02:19:07.698Z,19.60
2018-06-15T02:21:36.112Z,19.70
2018-06-15T02:24:04.957Z,19.60
2018-06-15T02:26:33.411Z,19.60
2018-06-15T02:29:01.776Z,19.70
2018-06-15T02:31:30.257Z,19.70
2018-06-15T02:33:58.712Z,19.50
2018-06-15T02:36:27.090Z,19.40
2018-06-15T02:38:55.458Z,19.50
2018-06-15T02:41:23.910Z,19.50
2018-06-15T02:43:52.287Z,19.50
2018-06-15T02:46:20.850Z,19.40
2018-06-15T02:48:49.214Z,19.30
2018-06-15T02:51:17.822Z,19.20
2018-06-15T02:53:46.181Z,19.20
2018-06-15T02:56:14.725Z,19.30
2018-06-15T03:01:11.180Z,19.40
2018-06-15T03:03:39.671Z,19.40
2018-06-15T03:06:08.229Z,19.30
2018-06-15T03:08:36.606Z,19.20
2018-06-15T03:11:05.126Z,19.20
2018-06-15T03:13:33.539Z,19.20
2018-06-15T03:16:01.942Z,19.10
2018-06-15T03:18:30.382Z,19.00
2018-06-15T03:20:58.903Z,18.90
2018-06-15T03:23:27.371Z,18.90
2018-06-15T03:25:55.733Z,18.80
2018-06-15T03:28:24.524Z,18.90
2018-06-15T03:30:52.868Z,19.00
2018-06-15T03:33:21.258Z,19.10
2018-06-15T03:35:49.733Z,19.20
2018-06-15T03:38:18.174Z,19.30
2018-06-15T03:40:46.555Z,19.30
2018-06-15T03:43:15.051Z,19.20
2018-06-15T03:45:43.577Z,19.20
2018-06-15T03:48:12.489Z,19.20
2018-06-15T03:50:41.056Z,19.20
2018-06-15T03:53:09.497Z,19.00
2018-06-15T03:55:37.890Z,19.00
2018-06-15T03:58:06.211Z,19.00
2018-06-15T04:00:34.677Z,19.10
2018-06-15T04:03:03.125Z,19.10
2018-06-15T04:05:31.513Z,19.10
2018-06-15T04:07:59.947Z,19.10
2018-06-15T04:10:28.474Z,19.20
2018-06-15T04:12:56.850Z,19.20
2018-06-15T04:15:25.271Z,19.20
2018-06-15T04:20:26.318Z,19.00
2018-06-15T04:22:55.182Z,18.90
2018-06-15T04:25:23.613Z,18.80
2018-06-15T04:27:52.017Z,18.70
2018-06-15T04:30:20.611Z,18.70
2018-06-15T04:32:49.059Z,18.60
2018-06-15T04:35:17.457Z,18.70
2018-06-15T04:37:46.253Z,18.70
2018-06-15T04:40:14.709Z,18.70
2018-06-15T04:42:43.529Z,18.80
2018-06-15T04:45:11.947Z,18.80
2018-06-15T04:47:40.372Z,18.80
2018-06-15T04:50:09.335Z,18.80
2018-06-15T04:52:37.696Z,18.80
2018-06-15T04:57:34.724Z,18.90
2018-06-15T05:00:03.281Z,18.80
2018-06-15T05:02:31.908Z,18.80
2018-06-15T05:05:00.994Z,18.80
2018-06-15T05:07:29.865Z,18.70
2018-06-15T05:09:58.270Z,18.70
2018-06-15T05:14:54.854Z,18.70
2018-06-15T05:17:23.559Z,18.80
2018-06-15T05:19:52.237Z,18.90
2018-06-15T05:22:20.685Z,18.90
2018-06-15T05:24:49.097Z,19.00
2018-06-15T05:27:17.435Z,18.90
2018-06-15T05:29:45.814Z,19.00
2018-06-15T05:32:14.339Z,19.00
2018-06-15T05:34:42.727Z,19.00
2018-06-15T05:37:11.141Z,19.00
2018-06-15T05:39:39.810Z,19.00
2018-06-15T05:42:08.233Z,19.00
2018-06-15T05:44:36.726Z,19.00
2018-06-15T05:47:05.333Z,19.00
2018-06-15T05:49:33.873Z,19.00
2018-06-15T05:52:02.222Z,19.00
2018-06-15T05:54:30.890Z,19.10
2018-06-15T05:56:59.366Z,19.10
2018-06-15T05:59:27.894Z,19.10
2018-06-15T06:01:56.431Z,19.10
2018-06-15T06:04:24.826Z,19.10
2018-06-15T06:06:53.395Z,19.10
2018-06-15T06:09:21.785Z,19.10
2018-06-15T06:11:50.375Z,19.10
2018-06-15T06:14:18.820Z,19.10
2018-06-15T06:16:47.424Z,19.10
2018-06-15T06:19:15.897Z,19.10
2018-06-15T06:21:44.278Z,19.00
2018-06-15T06:24:12.725Z,19.00
2018-06-15T06:26:41.220Z,19.00
2018-06-15T06:29:09.582Z,18.90
2018-06-15T06:31:38.014Z,19.00
2018-06-15T06:34:06.978Z,19.00
2018-06-15T06:36:35.466Z,18.90
2018-06-15T06:39:05.843Z,18.90
2018-06-15T06:41:34.274Z,19.00
2018-06-15T06:44:03.057Z,19.00
2018-06-15T06:46:31.628Z,19.00
2018-06-15T06:49:00.043Z,19.00
2018-06-15T06:51:28.533Z,19.00
2018-06-15T06:53:56.960Z,19.10
2018-06-15T06:56:25.846Z,19.10
2018-06-15T06:58:54.249Z,19.20
2018-06-15T07:01:22.637Z,19.30
2018-06-15T07:03:51.108Z,19.30
2018-06-15T07:06:19.707Z,19.40
2018-06-15T07:08:48.064Z,19.50
2018-06-15T07:11:16.501Z,19.50
2018-06-15T07:13:45.327Z,19.60
2018-06-15T07:16:13.822Z,19.60
2018-06-15T07:18:42.199Z,19.70
2018-06-15T07:21:10.738Z,19.70
2018-06-15T07:23:39.287Z,19.80
2018-06-15T07:26:07.923Z,19.90
2018-06-15T07:28:36.433Z,20.00
2018-06-15T07:31:05.179Z,20.10
2018-06-15T07:33:33.740Z,20.10
2018-06-15T07:36:02.065Z,20.10
2018-06-15T07:38:30.577Z,20.20
2018-06-15T07:40:59.038Z,20.20
2018-06-15T07:43:27.625Z,20.20
2018-06-15T07:45:56.199Z,20.30
2018-06-15T07:48:24.915Z,20.30
2018-06-15T07:50:53.489Z,20.40
2018-06-15T07:53:22.161Z,20.40
2018-06-15T07:55:50.539Z,20.60
2018-06-15T07:58:19.087Z,20.60
2018-06-15T08:00:47.685Z,20.50
2018-06-15T08:03:16.194Z,20.50
2018-06-15T08:05:44.618Z,20.40
2018-06-15T08:08:13.315Z,20.50
2018-06-15T08:10:41.746Z,20.50
2018-06-15T08:13:10.121Z,20.50
2018-06-15T08:15:38.661Z,20.50
2018-06-15T08:18:07.154Z,20.50
2018-06-15T08:20:35.673Z,20.50
2018-06-15T08:23:04.061Z,20.50
2018-06-15T08:25:32.514Z,20.50
2018-06-15T08:28:01.039Z,20.60
2018-06-15T08:30:29.409Z,20.60
2018-06-15T08:32:57.794Z,20.60
2018-06-15T08:35:26.255Z,20.60
2018-06-15T08:37:54.687Z,20.60
2018-06-15T08:40:23.189Z,20.70
2018-06-15T08:42:51.611Z,20.70
2018-06-15T08:45:20.012Z,20.80
2018-06-15T08:47:48.446Z,20.80
2018-06-15T08:50:16.806Z,20.80
2018-06-15T08:52:45.295Z,20.90
2018-06-15T08:55:13.797Z,21.00
2018-06-15T08:57:42.246Z,21.00
2018-06-15T09:00:10.608Z,21.10
2018-06-15T09:02:39.053Z,21.10
2018-06-15T09:05:07.526Z,21.10
2018-06-15T09:07:36.048Z,21.20
2018-06-15T09:10:04.574Z,21.20
2018-06-15T09:12:32.947Z,21.30
2018-06-15T09:15:01.330Z,21.40
2018-06-15T09:17:29.845Z,21.40
2018-06-15T09:19:58.214Z,21.50
2018-06-15T09:22:26.596Z,21.50
2018-06-15T09:24:54.975Z,21.60
2018-06-15T09:27:23.952Z,21.60
2018-06-15T09:29:52.549Z,21.70
2018-06-15T09:32:21.011Z,21.70
2018-06-15T09:34:49.491Z,21.80
2018-06-15T09:37:17.929Z,21.90
2018-06-15T09:39:46.431Z,21.90
2018-06-15T09:42:14.882Z,22.00
2018-06-15T09:44:43.512Z,22.00
2018-06-15T09:47:11.966Z,22.00
2018-06-15T09:49:40.497Z,22.00
2018-06-15T09:52:08.877Z,22.00
2018-06-15T09:54:37.286Z,22.00
2018-06-15T09:57:06.006Z,22.10
2018-06-15T09:59:34.459Z,22.10
2018-06-15T10:02:02.917Z,22.10
2018-06-15T10:04:31.453Z,22.20
2018-06-15T10:06:59.828Z,22.20
2018-06-15T10:09:28.191Z,22.20
2018-06-15T10:11:56.537Z,22.20
2018-06-15T10:14:24.918Z,22.20
2018-06-15T10:16:53.294Z,22.20
2018-06-15T10:19:21.655Z,22.10
2018-06-15T10:21:50.267Z,22.10
2018-06-15T10:24:18.646Z,22.10
2018-06-15T10:26:47.067Z,22.10
2018-06-15T10:29:15.582Z,22.10
2018-06-15T10:31:43.925Z,22.10
2018-06-15T10:34:12.455Z,22.10
2018-06-15T10:36:40.878Z,22.10
2018-06-15T10:39:10.790Z,22.10
2018-06-15T10:41:39.565Z,22.10
2018-06-15T10:44:08.058Z,22.20
2018-06-15T10:46:36.437Z,22.20
2018-06-15T10:49:04.998Z,22.30
2018-06-15T10:51:33.684Z,22.40
2018-06-15T10:54:02.170Z,22.60
2018-06-15T10:56:30.579Z,22.70
2018-06-15T10:58:59.009Z,22.90
2018-06-15T11:01:27.389Z,23.00
2018-06-15T11:03:55.881Z,23.20
2018-06-15T11:06:24.261Z,23.30
2018-06-15T11:08:52.774Z,23.40
2018-06-15T11:11:21.271Z,23.40
2018-06-15T11:13:49.661Z,23.40
2018-06-15T11:16:18.306Z,23.50
2018-06-15T11:18:46.817Z,23.60
2018-06-15T11:21:15.228Z,23.70
2018-06-15T11:23:43.572Z,23.70
2018-06-15T11:26:12.001Z,23.60
2018-06-15T11:28:40.386Z,23.60
2018-06-15T11:31:08.927Z,23.60
2018-06-15T11:33:37.262Z,23.60
2018-06-15T11:36:05.780Z,23.80
2018-06-15T11:38:34.327Z,24.00
2018-06-15T11:41:02.750Z,24.00
2018-06-15T11:43:31.206Z,24.10
2018-06-15T11:45:59.711Z,24.20
2018-06-15T11:48:28.119Z,24.40
2018-06-15T11:50:56.741Z,24.50
2018-06-15T11:53:25.092Z,24.60
2018-06-15T11:55:53.521Z,24.80
2018-06-15T11:58:21.906Z,24.90
2018-06-15T12:00:50.429Z,25.00
2018-06-15T12:03:18.794Z,24.90
2018-06-15T12:05:47.192Z,24.90
2018-06-15T12:08:15.663Z,24.70
2018-06-15T12:10:44.018Z,24.70
2018-06-15T12:13:12.434Z,24.60
2018-06-15T12:15:40.927Z,24.60
2018-06-15T12:18:09.313Z,24.60
2018-06-15T12:20:37.692Z,24.60
2018-06-15T12:23:06.121Z,24.60
2018-06-15T12:25:34.549Z,24.80
2018-06-15T12:28:03.306Z,25.00
2018-06-15T12:30:31.735Z,25.20
2018-06-15T12:33:00.207Z,25.40
2018-06-15T12:35:28.622Z,25.70
2018-06-15T12:37:57.139Z,25.90
2018-06-15T12:40:25.501Z,26.20
2018-06-15T12:42:53.958Z,26.40
2018-06-15T12:45:22.334Z,26.50
2018-06-15T12:47:50.931Z,26.70
2018-06-15T12:50:19.369Z,26.60
2018-06-15T12:52:47.879Z,26.40
2018-06-15T12:55:16.373Z,26.20
2018-06-15T12:57:44.896Z,26.00
2018-06-15T13:00:13.503Z,25.90
2018-06-15T13:02:41.995Z,25.70
2018-06-15T13:05:10.491Z,25.80
2018-06-15T13:07:38.985Z,26.00
2018-06-15T13:10:07.544Z,26.10
2018-06-15T13:12:35.968Z,26.10
2018-06-15T13:15:04.537Z,26.00
2018-06-15T13:17:32.917Z,25.90
2018-06-15T13:20:01.445Z,25.70
2018-06-15T13:22:29.985Z,25.60
2018-06-15T13:24:58.369Z,25.60
2018-06-15T13:27:26.925Z,25.80
2018-06-15T13:29:55.385Z,25.90
2018-06-15T13:32:23.790Z,26.00
2018-06-15T13:34:52.283Z,26.30
2018-06-15T13:37:20.821Z,26.40
2018-06-15T13:39:49.454Z,26.50
2018-06-15T13:42:17.878Z,26.80
2018-06-15T13:44:46.389Z,26.90
2018-06-15T13:47:14.777Z,26.90
2018-06-15T13:49:43.171Z,26.50
2018-06-15T13:52:11.573Z,26.30
2018-06-15T13:54:40.033Z,26.20
2018-06-15T13:57:08.494Z,26.30
2018-06-15T13:59:36.958Z,26.20
2018-06-15T14:02:06.311Z,26.10
2018-06-15T14:04:34.678Z,26.00
2018-06-15T14:07:03.218Z,26.00
2018-06-15T14:09:31.737Z,26.20
2018-06-15T14:12:00.164Z,26.50
2018-06-15T14:14:28.848Z,26.70
2018-06-15T14:16:57.377Z,26.90
2018-06-15T14:19:25.973Z,27.00
2018-06-15T14:21:54.514Z,27.20
2018-06-15T14:24:23.005Z,27.40
2018-06-15T14:26:51.547Z,27.60
2018-06-15T14:29:19.998Z,27.60
2018-06-15T14:31:48.655Z,27.70
2018-06-15T14:34:17.138Z,27.80
2018-06-15T14:36:45.604Z,28.00
2018-06-15T14:39:14.175Z,27.80
2018-06-15T14:41:42.747Z,27.60
2018-06-15T14:44:11.142Z,27.60
2018-06-15T14:46:39.529Z,27.50
2018-06-15T14:49:07.934Z,27.40
2018-06-15T14:51:36.630Z,27.30
2018-06-15T14:54:04.993Z,27.40
2018-06-15T14:56:33.553Z,27.50
2018-06-15T14:59:02.097Z,27.60
2018-06-15T15:01:30.595Z,27.70
2018-06-15T15:03:59.010Z,27.70
2018-06-15T15:06:27.449Z,27.70
2018-06-15T15:08:55.821Z,27.90
2018-06-15T15:11:24.461Z,28.00
2018-06-15T15:13:52.911Z,28.00
2018-06-15T15:16:21.435Z,28.00
2018-06-15T15:21:18.337Z,27.60
2018-06-15T15:23:46.743Z,27.40
2018-06-15T15:26:15.211Z,27.10
2018-06-15T15:28:43.688Z,26.80
2018-06-15T15:31:12.136Z,26.60
2018-06-15T15:33:40.800Z,26.50
2018-06-15T15:36:09.265Z,26.30
2018-06-15T15:38:37.657Z,26.20
2018-06-15T15:41:06.181Z,26.20
2018-06-15T15:43:34.624Z,26.20
2018-06-15T15:46:03.357Z,26.10
2018-06-15T15:48:31.834Z,26.00
2018-06-15T15:51:00.266Z,25.90
2018-06-15T15:53:28.699Z,25.90
2018-06-15T15:55:57.249Z,25.80
2018-06-15T15:58:25.650Z,25.80
2018-06-15T16:00:54.060Z,25.70
2018-06-15T16:03:22.438Z,25.70
2018-06-15T16:05:50.958Z,25.60
2018-06-15T16:08:19.707Z,25.50
2018-06-15T16:10:48.135Z,25.40
2018-06-15T16:13:16.534Z,25.40
2018-06-15T16:15:44.970Z,25.40
2018-06-15T16:18:13.456Z,25.40
2018-06-15T16:20:41.961Z,25.60
2018-06-15T16:23:10.347Z,25.60
2018-06-15T16:25:38.771Z,25.70
2018-06-15T16:28:07.296Z,25.90
2018-06-15T16:30:35.833Z,26.00
2018-06-15T16:33:04.340Z,26.00
2018-06-15T16:35:32.883Z,26.10
2018-06-15T16:38:01.491Z,26.10
2018-06-15T16:40:29.903Z,26.00
2018-06-15T16:42:58.369Z,25.90
2018-06-15T16:45:26.791Z,25.90
2018-06-15T16:47:55.375Z,25.80
2018-06-15T16:50:24.047Z,25.70
2018-06-15T16:52:52.478Z,25.70
2018-06-15T16:55:21.142Z,25.70
2018-06-15T16:57:49.637Z,25.70
2018-06-15T17:02:46.146Z,25.70
2018-06-15T17:05:14.603Z,25.60
2018-06-15T17:07:42.974Z,25.50
2018-06-15T17:10:11.708Z,25.50
2018-06-15T17:12:40.552Z,25.40
2018-06-15T17:15:09.156Z,25.40
2018-06-15T17:17:37.569Z,25.50
2018-06-15T17:20:06.086Z,25.50
2018-06-15T17:22:34.576Z,25.60
2018-06-15T17:25:03.379Z,25.60
2018-06-15T17:27:31.991Z,25.60
2018-06-15T17:30:00.771Z,25.60
2018-06-15T17:32:29.426Z,25.60
2018-06-15T17:34:58.038Z,25.60
2018-06-15T17:37:26.474Z,25.50
2018-06-15T17:39:54.870Z,25.50
2018-06-15T17:42:23.327Z,25.50
2018-06-15T17:44:51.802Z,25.40
2018-06-15T17:47:20.537Z,25.40
2018-06-15T17:49:49.016Z,25.40
2018-06-15T17:52:17.561Z,25.40
2018-06-15T17:54:45.942Z,25.40
2018-06-15T17:57:14.330Z,25.40
2018-06-15T17:59:42.791Z,25.40
2018-06-15T18:02:11.179Z,25.30
2018-06-15T18:04:39.682Z,25.30
2018-06-15T18:07:08.230Z,25.30
2018-06-15T18:09:36.741Z,25.20
2018-06-15T18:12:05.137Z,25.20
2018-06-15T18:14:33.618Z,25.20
2018-06-15T18:17:02.055Z,25.10
2018-06-15T18:19:30.743Z,25.10
2018-06-15T18:21:59.268Z,25.10
2018-06-15T18:24:27.635Z,25.00
2018-06-15T18:26:56.150Z,24.90
2018-06-15T18:29:24.534Z,24.80
2018-06-15T18:31:53.053Z,24.80
2018-06-15T18:34:21.449Z,24.70
2018-06-15T18:36:49.854Z,24.70
2018-06-15T18:39:18.213Z,24.60
2018-06-15T18:41:46.611Z,24.50
2018-06-15T18:44:14.967Z,24.50
2018-06-15T18:46:43.562Z,24.50
2018-06-15T18:49:12.175Z,24.40
2018-06-15T18:51:40.572Z,24.40
2018-06-15T18:54:09.265Z,24.30
2018-06-15T18:56:37.693Z,24.30
2018-06-15T18:59:06.122Z,24.20
2018-06-15T19:01:34.607Z,24.20
2018-06-15T19:04:03.064Z,24.10
2018-06-15T19:06:31.498Z,24.10
2018-06-15T19:09:00.073Z,24.00
2018-06-15T19:11:28.553Z,24.00
2018-06-15T19:13:57.007Z,23.90
2018-06-15T19:16:26.205Z,23.80
2018-06-15T19:18:54.715Z,23.70
2018-06-15T19:21:23.132Z,23.70
2018-06-15T19:23:51.486Z,23.60
2018-06-15T19:26:20.043Z,23.50
2018-06-15T19:28:48.541Z,23.40
2018-06-15T19:31:16.954Z,23.30
2018-06-15T19:33:45.500Z,23.20
2018-06-15T19:36:14.308Z,23.10
2018-06-15T19:38:42.999Z,23.10
2018-06-15T19:41:11.578Z,23.00
2018-06-15T19:46:08.308Z,22.90
2018-06-15T19:48:36.893Z,22.80
2018-06-15T19:51:05.512Z,22.70
2018-06-15T19:53:34.352Z,22.60
2018-06-15T19:56:02.865Z,22.60
2018-06-15T19:58:31.426Z,22.60
2018-06-15T20:01:01.018Z,22.50
2018-06-15T20:03:29.616Z,22.50
2018-06-15T20:05:58.384Z,22.40
2018-06-15T20:08:27.004Z,22.40
2018-06-15T20:10:55.566Z,22.30
2018-06-15T20:13:24.462Z,22.20
2018-06-15T20:15:53.548Z,22.20
2018-06-15T20:18:22.308Z,22.10
2018-06-15T20:20:50.825Z,22.10
2018-06-15T20:23:19.321Z,22.10
2018-06-15T20:25:47.887Z,22.00
2018-06-15T20:28:16.569Z,21.90
2018-06-15T20:30:45.146Z,21.90
2018-06-15T20:33:13.524Z,21.80
2018-06-15T20:35:42.071Z,21.80
2018-06-15T20:38:10.518Z,21.70
2018-06-15T20:40:39.137Z,21.70
2018-06-15T20:43:07.875Z,21.60
2018-06-15T20:45:36.574Z,21.60
2018-06-15T20:48:05.028Z,21.50
2018-06-15T20:50:33.549Z,21.50
2018-06-15T20:53:02.344Z,21.40
2018-06-15T20:55:30.851Z,21.40
2018-06-15T20:57:59.639Z,21.30
2018-06-15T21:00:28.121Z,21.30
2018-06-15T21:02:56.502Z,21.30
2018-06-15T21:05:25.204Z,21.30
2018-06-15T21:07:53.660Z,21.20
2018-06-15T21:10:22.175Z,21.20
2018-06-15T21:12:50.554Z,21.20
2018-06-15T21:15:18.967Z,21.10
2018-06-15T21:17:47.442Z,21.10
2018-06-15T21:20:15.907Z,21.00
2018-06-15T21:22:44.325Z,21.00
2018-06-15T21:25:12.744Z,21.00
2018-06-15T21:27:41.261Z,20.90
2018-06-15T21:30:09.641Z,20.90
2018-06-15T21:32:38.038Z,20.90
2018-06-15T21:35:06.713Z,20.80
2018-06-15T21:37:35.105Z,20.80
2018-06-15T21:40:03.578Z,20.80
2018-06-15T21:42:32.236Z,20.70
2018-06-15T21:45:00.748Z,20.70
2018-06-15T21:47:29.177Z,20.60
2018-06-15T21:49:57.758Z,20.60
2018-06-15T21:52:26.306Z,20.60
2018-06-15T21:54:54.995Z,20.50
2018-06-15T21:57:23.650Z,20.50
2018-06-15T21:59:52.253Z,20.50
2018-06-15T22:02:20.676Z,20.40
2018-06-15T22:04:49.286Z,20.40
2018-06-15T22:07:17.754Z,20.40
2018-06-15T22:09:46.283Z,20.30
2018-06-15T22:12:14.858Z,20.30
2018-06-15T22:14:43.366Z,20.30
2018-06-15T22:17:11.769Z,20.20
2018-06-15T22:19:40.306Z,20.20
2018-06-15T22:22:08.813Z,20.20
2018-06-15T22:24:37.321Z,20.10
2018-06-15T22:27:05.853Z,20.10
2018-06-15T22:29:34.364Z,20.10
2018-06-15T22:32:02.943Z,20.10
2018-06-15T22:34:31.438Z,20.20
2018-06-15T22:36:59.860Z,20.20
2018-06-15T22:39:28.352Z,20.20
2018-06-15T22:41:56.838Z,20.10
2018-06-15T22:44:25.226Z,20.10
2018-06-15T22:46:53.889Z,20.00
2018-06-15T22:49:22.364Z,20.00
2018-06-15T22:51:50.966Z,20.00
2018-06-15T22:54:19.394Z,19.90
2018-06-15T22:56:47.918Z,19.90
2018-06-15T22:59:16.347Z,19.80
2018-06-15T23:01:44.769Z,19.80
2018-06-15T23:04:13.184Z,19.80
2018-06-15T23:06:41.515Z,19.70
2018-06-15T23:09:11.686Z,19.70
2018-06-15T23:11:41.221Z,19.70
2018-06-15T23:14:10.043Z,19.70
2018-06-15T23:16:38.610Z,19.70
2018-06-15T23:19:07.351Z,19.80
2018-06-15T23:21:35.953Z,19.70
2018-06-15T23:24:04.820Z,19.70
2018-06-15T23:26:33.610Z,19.70
2018-06-15T23:29:02.603Z,19.70
2018-06-15T23:31:31.352Z,19.80
2018-06-15T23:34:00.533Z,19.90
2018-06-15T23:36:29.057Z,19.90
2018-06-15T23:38:57.933Z,19.90
2018-06-15T23:41:27.262Z,19.90
2018-06-15T23:43:55.641Z,19.90
2018-06-15T23:46:24.217Z,19.90
2018-06-15T23:51:20.742Z,19.80
2018-06-15T23:53:49.160Z,19.80
2018-06-15T23:56:17.574Z,19.80
2018-06-15T23:58:45.917Z,19.80
